Time,TemperatureF,DewpointF,PressureIn,WindDirection,WindDirectionDegrees,WindSpeedMPH,WindSpeedGustMPH,Humidity,HourlyPrecipIn,Conditions,Clouds,dailyrainin,SolarRadiationWatts/m^2,SoftwareType,DateUTC
2013-09-29 00:03:00,51.0,50.0,-100.00,SW,228,0.0,4.0,95,0.00,,,-99.99,0.000000,,2013-09-29 05:03:00,
2013-09-29 00:12:00,50.0,49.0,-100.00,SSW,193,1.0,3.0,95,0.00,,,0.29,0.000000,,2013-09-29 05:12:00,
2013-09-29 00:43:00,50.0,49.0,-100.00,SSW,193,1.0,3.0,95,0.00,,,0.29,0.000000,,2013-09-29 05:43:00,
2013-09-29 00:53:00,50.0,49.0,-100.00,SSW,193,1.0,3.0,95,0.00,,,0.29,0.000000,,2013-09-29 05:53:00,
2013-09-29 01:03:00,50.0,49.0,-100.00,SSW,193,1.0,3.0,95,0.00,,,0.29,0.000000,,2013-09-29 06:03:00,
2013-09-29 01:42:00,50.0,49.0,-100.00,WSW,241,0.0,4.0,96,0.00,,,0.29,0.000000,,2013-09-29 06:42:00,
2013-09-29 01:52:00,50.0,49.0,-100.00,WSW,241,0.0,4.0,96,0.00,,,0.29,0.000000,,2013-09-29 06:52:00,
2013-09-29 02:02:00,50.0,49.0,-100.00,WSW,241,0.0,4.0,96,0.00,,,0.29,0.000000,,2013-09-29 07:02:00,
2013-09-29 02:11:00,50.0,49.0,-100.00,WSW,241,0.0,4.0,96,0.00,,,0.29,0.000000,,2013-09-29 07:11:00,
2013-09-29 02:12:00,47.0,46.0,-100.00,SW,235,0.0,1.0,95,0.00,,,0.29,0.000000,,2013-09-29 07:12:00,
2013-09-29 02:43:00,47.0,46.0,-100.00,SW,235,0.0,1.0,95,0.00,,,0.29,0.000000,,2013-09-29 07:43:00,
2013-09-29 02:52:00,47.0,46.0,-100.00,SW,235,0.0,1.0,95,0.00,,,0.29,0.000000,,2013-09-29 07:52:00,
2013-09-29 03:02:00,47.0,46.0,-100.00,SW,235,0.0,1.0,95,0.00,,,0.29,0.000000,,2013-09-29 08:02:00,
2013-09-29 03:42:00,48.0,47.0,-100.00,West,274,2.0,5.0,96,0.00,,,0.29,0.000000,,2013-09-29 08:42:00,
2013-09-29 03:52:00,48.0,47.0,-100.00,West,274,2.0,5.0,96,0.00,,,0.29,0.000000,,2013-09-29 08:52:00,
2013-09-29 04:02:00,48.0,47.0,-100.00,West,274,2.0,5.0,96,0.00,,,0.29,0.000000,,2013-09-29 09:02:00,
2013-09-29 04:11:00,48.0,47.0,-100.00,West,274,2.0,5.0,96,0.00,,,0.29,0.000000,,2013-09-29 09:11:00,
2013-09-29 04:12:00,45.0,44.0,-100.00,East,98,0.0,4.0,95,0.00,,,0.29,0.000000,,2013-09-29 09:12:00,
2013-09-29 04:43:00,45.0,44.0,-100.00,East,98,0.0,4.0,95,0.00,,,0.29,0.000000,,2013-09-29 09:43:00,
2013-09-29 04:54:00,45.0,44.0,-100.00,East,98,0.0,4.0,95,0.00,,,0.29,0.000000,,2013-09-29 09:54:00,
2013-09-29 05:03:00,45.0,44.0,-100.00,East,98,0.0,4.0,95,0.00,,,0.29,0.000000,,2013-09-29 10:03:00,
2013-09-29 05:12:00,42.0,41.0,-100.00,NNE,30,0.0,0.0,95,0.00,,,0.29,0.000000,,2013-09-29 10:12:00,
2013-09-29 05:43:00,42.0,41.0,-100.00,NNE,30,0.0,0.0,95,0.00,,,0.29,0.000000,,2013-09-29 10:43:00,
2013-09-29 05:53:00,42.0,41.0,-100.00,NNE,30,0.0,0.0,95,0.00,,,0.29,0.000000,,2013-09-29 10:53:00,
2013-09-29 06:03:00,42.0,41.0,-100.00,NNE,30,0.0,0.0,95,0.00,,,0.29,0.000000,,2013-09-29 11:03:00,
2013-09-29 06:12:00,40.0,38.0,-100.00,SE,129,0.0,0.0,94,0.00,,,0.29,0.000000,,2013-09-29 11:12:00,
2013-09-29 06:42:00,40.0,38.0,-100.00,SE,129,0.0,0.0,94,0.00,,,0.29,0.000000,,2013-09-29 11:42:00,
2013-09-29 06:52:00,40.0,38.0,-100.00,SE,129,0.0,0.0,94,0.00,,,0.29,0.000000,,2013-09-29 11:52:00,
2013-09-29 07:01:00,40.0,38.0,-100.00,SE,129,0.0,0.0,94,0.00,,,0.29,0.000000,,2013-09-29 12:01:00,
2013-09-29 07:42:00,39.0,37.0,-100.00,NW,307,0.0,0.0,94,0.00,,,0.29,3.000000,,2013-09-29 12:42:00,
2013-09-29 07:52:00,39.0,37.0,-100.00,NW,307,0.0,0.0,94,0.00,,,0.29,3.000000,,2013-09-29 12:52:00,
2013-09-29 08:02:00,39.0,37.0,-100.00,NW,307,0.0,0.0,94,0.00,,,0.29,3.000000,,2013-09-29 13:02:00,
2013-09-29 08:11:00,39.0,37.0,-100.00,NW,307,0.0,0.0,94,0.00,,,0.29,3.000000,,2013-09-29 13:11:00,
2013-09-29 08:12:00,44.0,43.0,-100.00,East,96,0.0,1.0,95,0.00,,,0.29,71.000000,,2013-09-29 13:12:00,
2013-09-29 08:42:00,44.0,43.0,-100.00,East,96,0.0,1.0,95,0.00,,,0.29,71.000000,,2013-09-29 13:42:00,
2013-09-29 08:53:00,44.0,43.0,-100.00,East,96,0.0,1.0,95,0.00,,,0.29,71.000000,,2013-09-29 13:53:00,
2013-09-29 09:02:00,44.0,43.0,-100.00,East,96,0.0,1.0,95,0.00,,,0.29,71.000000,,2013-09-29 14:02:00,
2013-09-29 09:12:00,52.0,50.0,-100.00,West,271,2.0,4.0,92,0.00,,,0.29,278.000000,,2013-09-29 14:12:00,
2013-09-29 09:43:00,52.0,50.0,-100.00,West,271,2.0,4.0,92,0.00,,,0.29,278.000000,,2013-09-29 14:43:00,
2013-09-29 09:52:00,52.0,50.0,-100.00,West,271,2.0,4.0,92,0.00,,,0.29,278.000000,,2013-09-29 14:52:00,
2013-09-29 10:02:00,52.0,50.0,-100.00,West,271,2.0,4.0,92,0.00,,,0.29,278.000000,,2013-09-29 15:02:00,
2013-09-29 10:12:00,59.0,50.0,-100.00,SSW,208,3.0,6.0,73,0.00,,,0.29,439.000000,,2013-09-29 15:12:00,
2013-09-29 10:45:00,59.0,50.0,-100.00,SSW,208,3.0,6.0,73,0.00,,,0.29,439.000000,,2013-09-29 15:45:00,
2013-09-29 10:55:00,59.0,50.0,-100.00,SSW,208,3.0,6.0,73,0.00,,,0.29,439.000000,,2013-09-29 15:55:00,
2013-09-29 11:05:00,59.0,50.0,-100.00,SSW,208,3.0,6.0,73,0.00,,,0.29,439.000000,,2013-09-29 16:05:00,
2013-09-29 11:12:00,62.0,49.0,-100.00,SSW,194,5.0,10.0,62,0.00,,,0.29,584.000000,,2013-09-29 16:12:00,
2013-09-29 11:44:00,62.0,49.0,-100.00,SSW,194,5.0,10.0,62,0.00,,,0.29,584.000000,,2013-09-29 16:44:00,
2013-09-29 11:54:00,62.0,49.0,-100.00,SSW,194,5.0,10.0,62,0.00,,,0.29,584.000000,,2013-09-29 16:54:00,
2013-09-29 12:03:00,62.0,49.0,-100.00,SSW,194,5.0,10.0,62,0.00,,,0.29,584.000000,,2013-09-29 17:03:00,
2013-09-29 12:12:00,66.0,47.0,-100.00,SSW,204,4.0,10.0,50,0.00,,,0.29,680.000000,,2013-09-29 17:12:00,
2013-09-29 12:43:00,66.0,47.0,-100.00,SSW,204,4.0,10.0,50,0.00,,,0.29,680.000000,,2013-09-29 17:43:00,
2013-09-29 12:52:00,66.0,47.0,-100.00,SSW,204,4.0,10.0,50,0.00,,,0.29,680.000000,,2013-09-29 17:52:00,
2013-09-29 13:02:00,66.0,47.0,-100.00,SSW,204,4.0,10.0,50,0.00,,,0.29,680.000000,,2013-09-29 18:02:00,
2013-09-29 13:42:00,68.0,45.0,-100.00,SSW,200,5.0,10.0,43,0.00,,,0.29,717.000000,,2013-09-29 18:42:00,
2013-09-29 13:52:00,68.0,45.0,-100.00,SSW,200,5.0,10.0,43,0.00,,,0.29,717.000000,,2013-09-29 18:52:00,
2013-09-29 14:02:00,68.0,45.0,-100.00,SSW,200,5.0,10.0,43,0.00,,,0.29,717.000000,,2013-09-29 19:02:00,
2013-09-29 14:11:00,68.0,45.0,-100.00,SSW,200,5.0,10.0,43,0.00,,,0.29,717.000000,,2013-09-29 19:11:00,
2013-09-29 14:12:00,69.0,43.0,-100.00,South,190,7.0,13.0,39,0.00,,,0.29,693.000000,,2013-09-29 19:12:00,
2013-09-29 14:42:00,69.0,43.0,-100.00,South,190,7.0,13.0,39,0.00,,,0.29,693.000000,,2013-09-29 19:42:00,
2013-09-29 14:52:00,69.0,43.0,-100.00,South,190,7.0,13.0,39,0.00,,,0.29,693.000000,,2013-09-29 19:52:00,
2013-09-29 15:02:00,69.0,43.0,-100.00,South,190,7.0,13.0,39,0.00,,,0.29,693.000000,,2013-09-29 20:02:00,
2013-09-29 15:43:00,70.0,43.0,-100.00,SW,218,5.0,13.0,38,0.00,,,0.29,616.000000,,2013-09-29 20:43:00,
2013-09-29 15:52:00,70.0,43.0,-100.00,SW,218,5.0,13.0,38,0.00,,,0.29,616.000000,,2013-09-29 20:52:00,
2013-09-29 16:02:00,70.0,43.0,-100.00,SW,218,5.0,13.0,38,0.00,,,0.29,616.000000,,2013-09-29 21:02:00,
2013-09-29 16:11:00,70.0,43.0,-100.00,SW,218,5.0,13.0,38,0.00,,,0.29,616.000000,,2013-09-29 21:11:00,
2013-09-29 16:12:00,70.0,43.0,-100.00,South,184,4.0,13.0,38,0.00,,,0.29,489.000000,,2013-09-29 21:12:00,
2013-09-29 16:44:00,70.0,43.0,-100.00,South,184,4.0,13.0,38,0.00,,,0.29,489.000000,,2013-09-29 21:44:00,
2013-09-29 16:55:00,70.0,43.0,-100.00,South,184,4.0,13.0,38,0.00,,,0.29,489.000000,,2013-09-29 21:55:00,
2013-09-29 17:04:00,70.0,43.0,-100.00,South,184,4.0,13.0,38,0.00,,,0.29,489.000000,,2013-09-29 22:04:00,
2013-09-29 17:12:00,69.0,43.0,-100.00,SSW,195,5.0,9.0,39,0.00,,,0.27,330.000000,,2013-09-29 22:12:00,
2013-09-29 17:43:00,69.0,43.0,-100.00,SSW,195,5.0,9.0,39,0.00,,,0.27,330.000000,,2013-09-29 22:43:00,
2013-09-29 17:53:00,69.0,43.0,-100.00,SSW,195,5.0,9.0,39,0.00,,,0.27,330.000000,,2013-09-29 22:53:00,
2013-09-29 18:03:00,69.0,43.0,-100.00,SSW,195,5.0,9.0,39,0.00,,,0.27,330.000000,,2013-09-29 23:03:00,
2013-09-29 18:43:00,65.0,45.0,-100.00,South,172,2.0,10.0,49,0.00,,,0.20,150.000000,,2013-09-29 23:43:00,
2013-09-29 18:53:00,65.0,45.0,-100.00,South,172,2.0,10.0,49,0.00,,,0.20,150.000000,,2013-09-29 23:53:00,
2013-09-29 19:02:00,65.0,45.0,-100.00,South,172,2.0,10.0,49,0.00,,,0.20,150.000000,,2013-09-30 00:02:00,
2013-09-29 19:11:00,65.0,45.0,-100.00,South,172,2.0,10.0,49,0.00,,,0.20,150.000000,,2013-09-30 00:11:00,
2013-09-29 19:42:00,56.0,49.0,-100.00,SE,125,0.0,3.0,76,0.00,,,0.07,7.000000,,2013-09-30 00:42:00,
2013-09-29 19:52:00,56.0,49.0,-100.00,SE,125,0.0,3.0,76,0.00,,,0.07,7.000000,,2013-09-30 00:52:00,
2013-09-29 20:02:00,56.0,49.0,-100.00,SE,125,0.0,3.0,76,0.00,,,0.07,7.000000,,2013-09-30 01:02:00,
2013-09-29 20:11:00,56.0,49.0,-100.00,SE,125,0.0,3.0,76,0.00,,,0.07,7.000000,,2013-09-30 01:11:00,
2013-09-29 20:12:00,51.0,48.0,-100.00,ESE,123,0.0,0.0,90,0.00,,,0.04,0.000000,,2013-09-30 01:12:00,
2013-09-29 20:42:00,51.0,48.0,-100.00,ESE,123,0.0,0.0,90,0.00,,,0.04,0.000000,,2013-09-30 01:42:00,
2013-09-29 20:52:00,51.0,48.0,-100.00,ESE,123,0.0,0.0,90,0.00,,,0.04,0.000000,,2013-09-30 01:52:00,
2013-09-29 21:02:00,51.0,48.0,-100.00,ESE,123,0.0,0.0,90,0.00,,,0.04,0.000000,,2013-09-30 02:02:00,
2013-09-29 21:12:00,48.0,46.0,-100.00,ESE,123,0.0,0.0,93,0.00,,,0.01,0.000000,,2013-09-30 02:12:00,
2013-09-29 21:42:00,48.0,46.0,-100.00,ESE,123,0.0,0.0,93,0.00,,,0.01,0.000000,,2013-09-30 02:42:00,
2013-09-29 21:52:00,48.0,46.0,-100.00,ESE,123,0.0,0.0,93,0.00,,,0.01,0.000000,,2013-09-30 02:52:00,
2013-09-29 22:02:00,48.0,46.0,-100.00,ESE,123,0.0,0.0,93,0.00,,,0.01,0.000000,,2013-09-30 03:02:00,
2013-09-29 22:12:00,46.0,44.0,-100.00,SE,126,0.0,1.0,94,0.00,,,0.00,0.000000,,2013-09-30 03:12:00,
2013-09-29 22:45:00,46.0,44.0,-100.00,SE,126,0.0,1.0,94,0.00,,,0.00,0.000000,,2013-09-30 03:45:00,
2013-09-29 22:55:00,46.0,44.0,-100.00,SE,126,0.0,1.0,94,0.00,,,0.00,0.000000,,2013-09-30 03:55:00,
2013-09-29 23:04:00,46.0,44.0,-100.00,SE,126,0.0,1.0,94,0.00,,,0.00,0.000000,,2013-09-30 04:04:00,
2013-09-29 23:12:00,45.0,43.0,-100.00,ESE,106,0.0,1.0,94,0.00,,,0.00,0.000000,,2013-09-30 04:12:00,
2013-09-29 23:44:00,45.0,43.0,-100.00,ESE,106,0.0,1.0,94,0.00,,,0.00,0.000000,,2013-09-30 04:44:00,
2013-09-29 23:53:00,45.0,43.0,-100.00,ESE,106,0.0,1.0,94,0.00,,,0.00,0.000000,,2013-09-30 04:53:00,